Current Weather

Leeuwarden

Leeuwarden, Netherlands (EHLW)

Report from: Friday, April 19, 2024 8:25 AM UTC
Current time: Friday, April 19, 2024 8:41 AM UTC

Nearby weather – Weather history – Daily summaries
Weather forecast

Present weatherLight rain, SHRAGS
Temperature9.0°C (48.2°F)
Wind chill5.8°C (42.4°F)
Dew point6.0°C (42.8°F)
Winds 13 kts (6.7 m/s, 15 mph) Vrb
Winds variableWinds variable from West (260°) to North-Northwest (330°)
Visibility6.2 mi. (10 km)
Clouds Few clouds 1,200 ft. (366 m)
Few clouds with cumulonimbus 1,500 ft. (457 m)
Scattered clouds 1,500 ft. (457 m)
Scattered clouds with cumulonimbus 2,000 ft. (610 m)
Scattered clouds 3,700 ft. (1,128 m)
Ceiling: Broken clouds 4,800 ft. (1,463 m)
Altimeter29.68 in.Hg (1005 mB)
Relative humidity81 %
Density altitude-302 ft. (-92 m)
Remarks Fully automated report
Flight conditions Visual Meteorological Conditions
Raw dataEHLW 190825Z AUTO 30013KT 260V330 9999 -RA FEW015CB SCT037 BKN048 09/06 Q1005 BLU TEMPO 4000 SHRAGS FEW012 SCT015 SCT020CB
An error has occurred. This application may no longer respond until reloaded. Reload 🗙